Time;durP1;ratioP1;P1;durP2;ratioP2;P2;SDS_P1;SDS_P2;PMS_P1;PMS_P2;Temp;Humidity;BMP_temperature;BMP_pressure;BME280_temperature;BME280_humidity;BME280_pressure;Samples;Min_cycle;Max_cycle;Signal;HPM_P1;HPM_P2
2022/12/26 00:02:16;;;;;;;;;;;;;;;13.00;63.72;102005.38;7399135;19;1386;-35
2022/12/26 00:04:44;;;;;;;;;;;;;;;13.06;63.46;102002.44;7401138;19;969;-35
2022/12/26 00:07:13;;;;;;;;;;;;;;;13.03;63.50;102002.59;7400087;19;1040;-35
2022/12/26 00:09:43;;;;;;;;;;;;;;;13.00;63.46;102007.16;7400984;19;988;-35
2022/12/26 00:12:12;;;;;;;;;;;;;;;12.98;63.43;102012.53;7399983;19;1862;-35
2022/12/26 00:14:40;;;;;;;;;;;;;;;12.95;63.54;102015.31;7399495;19;1036;-35
2022/12/26 00:17:08;;;;;;;;;;;;;;;12.98;63.59;102019.66;7400614;19;974;-35
2022/12/26 00:19:37;;;;;;;;;;;;;;;13.02;63.35;102005.31;7399141;19;1853;-35
2022/12/26 00:22:05;;;;;;;;;;;;;;;13.05;63.62;102031.72;7399668;19;1028;-35
2022/12/26 00:24:33;;;;;;;;;;;;;;;13.07;63.54;102022.78;7400509;19;1013;-35
2022/12/26 00:27:04;;;;;;;;;;;;;;;13.05;63.25;102018.44;7399586;19;995;-35
2022/12/26 00:29:32;;;;;;;;;;;;;;;13.00;63.51;102013.34;7399496;19;1110;-35
2022/12/26 00:32:00;;;;;;;;;;;;;;;13.01;63.72;102014.19;7400022;19;1052;-35
2022/12/26 00:34:29;;;;;;;;;;;;;;;13.01;63.58;102038.09;7399864;19;1054;-35
2022/12/26 00:36:57;;;;;;;;;;;;;;;13.04;63.65;102016.72;7400020;19;996;-35
2022/12/26 00:39:25;;;;;;;;;;;;;;;13.06;63.18;102007.75;7398084;19;1845;-35
2022/12/26 00:41:53;;;;;;;;;;;;;;;13.06;63.31;102023.69;7399516;19;1041;-35
2022/12/26 00:44:24;;;;;;;;;;;;;;;13.03;63.23;102015.88;7399840;19;1021;-35
2022/12/26 00:46:52;;;;;;;;;;;;;;;12.95;63.49;102017.97;7399791;19;1269;-35
2022/12/26 00:49:21;;;;;;;;;;;;;;;12.96;63.44;102032.13;7399674;19;1047;-35
2022/12/26 00:51:49;;;;;;;;;;;;;;;12.98;63.50;102019.66;7399651;19;1016;-35
2022/12/26 00:54:17;;;;;;;;;;;;;;;12.99;63.50;102040.84;7398741;19;1131;-35
2022/12/26 00:56:45;;;;;;;;;;;;;;;13.07;63.36;102025.44;7399414;19;1019;-35
2022/12/26 00:59:13;;;;;;;;;;;;;;;13.01;63.19;102025.69;7398544;19;1862;-35
2022/12/26 01:01:45;;;;;;;;;;;;;;;12.96;63.50;102021.50;7395434;19;1383;-35
2022/12/26 01:04:13;;;;;;;;;;;;;;;12.97;63.46;102026.75;7398061;19;1028;-35
2022/12/26 01:06:43;;;;;;;;;;;;;;;12.94;63.65;102053.44;7398284;19;1131;-35
2022/12/26 01:09:12;;;;;;;;;;;;;;;12.99;63.52;102040.84;7398234;19;1036;-35
2022/12/26 01:11:43;;;;;;;;;;;;;;;13.03;63.52;102039.78;7398657;19;1040;-35
2022/12/26 01:14:12;;;;;;;;;;;;;;;13.02;63.48;102016.78;7398636;19;961;-35
2022/12/26 01:16:41;;;;;;;;;;;;;;;12.98;63.37;102014.34;7397076;19;1072;-35
2022/12/26 01:19:12;;;;;;;;;;;;;;;12.93;63.40;102020.72;7397118;19;1857;-35
2022/12/26 01:21:41;;;;;;;;;;;;;;;12.91;63.54;102021.69;7398815;19;997;-35
2022/12/26 01:24:10;;;;;;;;;;;;;;;12.92;63.40;102020.78;7397954;19;1071;-35
2022/12/26 01:26:38;;;;;;;;;;;;;;;12.94;63.53;102022.41;7397659;19;1056;-35
2022/12/26 01:29:06;;;;;;;;;;;;;;;13.00;63.47;102018.66;7398699;19;1054;-35
2022/12/26 01:31:34;;;;;;;;;;;;;;;13.04;63.37;102004.31;7398553;19;1037;-35
2022/12/26 01:34:03;;;;;;;;;;;;;;;13.00;63.19;102000.06;7398537;19;984;-35
2022/12/26 01:36:33;;;;;;;;;;;;;;;12.97;63.47;101996.66;7397540;19;1032;-35
2022/12/26 01:39:02;;;;;;;;;;;;;;;12.96;63.24;102000.25;7397652;19;1852;-35
2022/12/26 01:41:32;;;;;;;;;;;;;;;12.93;63.75;101995.94;7398299;19;1238;-35
2022/12/26 01:44:01;;;;;;;;;;;;;;;12.96;63.32;101995.81;7398059;19;1017;-35
2022/12/26 01:46:31;;;;;;;;;;;;;;;12.98;63.21;102009.03;7398183;19;1011;-35
2022/12/26 01:49:02;;;;;;;;;;;;;;;12.99;63.35;102016.06;7397231;19;1037;-35
2022/12/26 01:51:34;;;;;;;;;;;;;;;12.95;63.55;102017.97;7397783;19;1040;-35
2022/12/26 01:54:07;;;;;;;;;;;;;;;12.91;63.34;102029.66;7397446;19;1067;-35
2022/12/26 01:56:37;;;;;;;;;;;;;;;12.87;63.52;102034.25;7397861;19;1078;-35
2022/12/26 01:59:08;;;;;;;;;;;;;;;12.83;63.76;102032.66;7397251;19;1860;-35
2022/12/26 02:01:38;;;;;;;;;;;;;;;12.93;63.88;102044.59;7396341;19;1414;-35
2022/12/26 02:06:49;;;;;;;;;;;;;;;12.97;63.16;102048.00;7397291;19;833;-35
2022/12/26 02:09:21;;;;;;;;;;;;;;;13.01;63.66;102046.94;7396697;19;1100;-35
2022/12/26 02:11:51;;;;;;;;;;;;;;;12.92;63.51;102026.09;7396628;19;1187;-35
2022/12/26 02:14:19;;;;;;;;;;;;;;;12.88;63.46;102017.38;7396511;19;1071;-35
2022/12/26 02:16:48;;;;;;;;;;;;;;;12.93;63.78;102017.16;7395323;19;1111;-35
2022/12/26 02:19:24;;;;;;;;;;;;;;;12.92;63.45;101999.53;7395691;19;1846;-35
2022/12/26 02:22:07;;;;;;;;;;;;;;;12.90;63.30;102004.91;7396364;19;1045;-35
2022/12/26 02:24:51;;;;;;;;;;;;;;;12.87;63.39;102001.50;7402730;19;1342;-35
2022/12/26 02:27:31;;;;;;;;;;;;;;;12.85;63.73;102019.28;7404435;19;954;-35
2022/12/26 02:30:05;;;;;;;;;;;;;;;12.95;63.62;102015.31;7403451;19;1043;-35
2022/12/26 02:32:43;;;;;;;;;;;;;;;12.94;63.54;101987.91;7403356;19;1028;-35
2022/12/26 02:35:16;;;;;;;;;;;;;;;12.92;63.32;101988.91;7404236;19;1024;-35
2022/12/26 02:37:51;;;;;;;;;;;;;;;12.85;63.50;101993.63;7403990;19;1018;-35
2022/12/26 02:40:28;;;;;;;;;;;;;;;12.89;63.22;101983.72;7402163;19;1860;-35
2022/12/26 02:42:59;;;;;;;;;;;;;;;12.94;63.29;101998.53;7402978;19;1103;-35
2022/12/26 02:48:19;;;;;;;;;;;;;;;12.98;63.46;101993.94;7403840;19;840;-35
2022/12/26 03:18:30;;;;;;;;;;;;;;;12.92;63.29;101999.53;7406811;19;693;-80
2022/12/26 03:21:02;;;;;;;;;;;;;;;12.90;63.30;101981.00;7403618;19;1839;-80
2022/12/26 03:23:32;;;;;;;;;;;;;;;12.91;63.42;101987.16;7405986;19;1015;-80
2022/12/26 03:28:44;;;;;;;;;;;;;;;12.91;63.06;102017.25;7406516;19;832;-80
2022/12/26 03:31:11;;;;;;;;;;;;;;;12.88;63.46;102009.41;7405509;19;975;-80
2022/12/26 03:36:32;;;;;;;;;;;;;;;12.96;63.09;102013.53;7405954;19;721;-81
2022/12/26 03:39:07;;;;;;;;;;;;;;;12.96;63.38;102005.56;7404956;19;1864;-79
2022/12/26 04:20:12;;;;;;;;;;;;;;;12.91;63.21;102011.06;7403198;19;1856;-79
2022/12/26 04:44:37;;;;;;;;;;;;;;;12.86;62.96;102010.41;7403706;19;706;-81
2022/12/26 04:47:06;;;;;;;;;;;;;;;12.82;63.36;102011.47;7402052;19;959;-79
2022/12/26 04:52:23;;;;;;;;;;;;;;;12.94;62.85;102016.25;7403063;19;670;-81
2022/12/26 04:54:52;;;;;;;;;;;;;;;12.96;62.91;102017.06;7402289;19;1003;-79
2022/12/26 04:57:24;;;;;;;;;;;;;;;12.93;63.09;102017.16;7402437;19;1023;-80
2022/12/26 04:59:52;;;;;;;;;;;;;;;12.88;62.94;102008.56;7401657;19;1847;-79
2022/12/26 05:10:25;;;;;;;;;;;;;;;12.91;63.16;102019.91;7401821;19;725;-79
2022/12/26 05:12:56;;;;;;;;;;;;;;;13.01;63.24;102046.06;7426713;19;1009;-80
2022/12/26 05:15:25;;;;;;;;;;;;;;;12.92;63.01;102042.00;7407203;19;985;-79
2022/12/26 05:28:49;;;;;;;;;;;;;;;12.89;63.13;102042.13;7402869;19;690;-80
2022/12/26 05:31:18;;;;;;;;;;;;;;;12.92;62.92;102042.00;7401991;19;1075;-80
2022/12/26 05:36:30;;;;;;;;;;;;;;;12.85;62.89;102044.06;7401307;19;757;-80
2022/12/26 05:38:59;;;;;;;;;;;;;;;12.84;63.00;102044.97;7401679;19;952;-80
2022/12/26 05:41:27;;;;;;;;;;;;;;;12.80;62.91;102056.66;7399666;19;1889;-80
2022/12/26 05:43:59;;;;;;;;;;;;;;;12.79;63.03;102043.44;7401548;19;956;-79
2022/12/26 05:46:27;;;;;;;;;;;;;;;12.84;62.93;102047.63;7401269;19;984;-79
2022/12/26 05:48:56;;;;;;;;;;;;;;;12.86;63.07;102044.91;7401588;19;988;-79
2022/12/26 05:51:24;;;;;;;;;;;;;;;12.87;63.09;102039.56;7401492;19;1137;-80
2022/12/26 05:53:53;;;;;;;;;;;;;;;12.87;63.03;102051.94;7400761;19;964;-80
2022/12/26 05:56:22;;;;;;;;;;;;;;;12.80;63.16;102050.50;7401311;19;948;-80
2022/12/26 05:58:55;;;;;;;;;;;;;;;12.75;63.48;102050.66;7405509;19;1137;-79
2022/12/26 06:01:27;;;;;;;;;;;;;;;12.69;63.32;102046.50;7405420;19;1829;-79
2022/12/26 06:03:58;;;;;;;;;;;;;;;12.77;63.25;102069.19;7408484;19;1058;-80
2022/12/26 06:06:27;;;;;;;;;;;;;;;12.70;63.03;102064.13;7407921;19;1034;-80
2022/12/26 06:08:56;;;;;;;;;;;;;;;12.66;63.16;102040.44;7408756;19;1004;-78
2022/12/26 06:11:25;;;;;;;;;;;;;;;12.62;63.59;102065.38;7405630;19;1363;-80
2022/12/26 06:13:56;;;;;;;;;;;;;;;12.62;63.34;102060.94;7407986;19;1005;-81
2022/12/26 06:16:27;;;;;;;;;;;;;;;12.63;63.41;102072.41;7407950;19;1121;-83
2022/12/26 06:18:56;;;;;;;;;;;;;;;12.57;63.35;102077.97;7407521;19;1026;-79
2022/12/26 06:21:25;;;;;;;;;;;;;;;12.67;63.35;102074.88;7405360;19;1901;-79
2022/12/26 06:23:53;;;;;;;;;;;;;;;12.64;63.46;102067.03;7408550;19;1116;-80
2022/12/26 06:26:21;;;;;;;;;;;;;;;12.65;63.35;102057.28;7407635;19;973;-79
2022/12/26 06:28:50;;;;;;;;;;;;;;;12.64;63.18;102090.06;7407679;19;1045;-80
2022/12/26 06:31:19;;;;;;;;;;;;;;;12.62;63.00;102065.38;7407177;19;992;-80
2022/12/26 06:33:53;;;;;;;;;;;;;;;12.62;63.24;102065.38;7407519;19;971;-80
2022/12/26 06:36:24;;;;;;;;;;;;;;;12.63;63.26;102080.34;7406971;19;985;-80
2022/12/26 06:38:53;;;;;;;;;;;;;;;12.60;63.25;102046.84;7407368;19;1042;-80
2022/12/26 06:41:23;;;;;;;;;;;;;;;12.63;63.07;102078.56;7404701;19;1856;-84
2022/12/26 06:43:52;;;;;;;;;;;;;;;12.59;63.14;102062.84;7407331;19;1068;-81
2022/12/26 06:46:22;;;;;;;;;;;;;;;12.58;63.14;102056.66;7407188;19;948;-79
2022/12/26 06:48:53;;;;;;;;;;;;;;;12.59;63.28;102052.22;7407038;19;1107;-80
2022/12/26 06:51:23;;;;;;;;;;;;;;;12.57;63.29;102062.03;7406574;19;979;-80
2022/12/26 06:53:52;;;;;;;;;;;;;;;12.59;63.47;102070.78;7406703;19;924;-79
2022/12/26 06:56:22;;;;;;;;;;;;;;;12.60;63.34;102064.59;7406135;19;1035;-81
2022/12/26 06:58:54;;;;;;;;;;;;;;;12.61;63.20;102053.88;7406427;19;1035;-79
2022/12/26 07:01:23;;;;;;;;;;;;;;;12.58;63.03;102046.06;7403495;19;1881;-79
2022/12/26 07:03:54;;;;;;;;;;;;;;;12.57;63.31;102060.22;7403631;19;1490;-81
2022/12/26 07:06:25;;;;;;;;;;;;;;;12.62;63.26;102052.97;7405603;19;1074;-80
2022/12/26 07:08:54;;;;;;;;;;;;;;;12.59;63.04;102047.78;7402702;19;1415;-80
2022/12/26 07:11:23;;;;;;;;;;;;;;;12.61;63.20;102064.50;7406181;19;959;-79
2022/12/26 07:13:52;;;;;;;;;;;;;;;12.60;63.03;102062.78;7415142;19;1008;-79
2022/12/26 07:16:26;;;;;;;;;;;;;;;12.57;63.39;102057.59;7425326;19;1507;-83
2022/12/26 07:19:00;;;;;;;;;;;;;;;12.63;63.06;102073.25;7406103;19;1033;-81
2022/12/26 07:21:28;;;;;;;;;;;;;;;12.57;63.28;102060.22;7403890;19;1850;-79
2022/12/26 07:23:56;;;;;;;;;;;;;;;12.52;63.14;102054.28;7406213;19;1013;-81
2022/12/26 07:26:27;;;;;;;;;;;;;;;12.56;63.08;102055.03;7405535;19;1074;-80
2022/12/26 07:28:56;;;;;;;;;;;;;;;12.54;63.15;102041.81;7405283;19;1023;-79
2022/12/26 07:31:26;;;;;;;;;;;;;;;12.53;63.19;102042.72;7405705;19;966;-80
2022/12/26 07:33:56;;;;;;;;;;;;;;;12.56;63.27;102050.56;7405868;19;1122;-80
2022/12/26 07:36:27;;;;;;;;;;;;;;;12.54;63.36;102063.88;7405317;19;1081;-80
2022/12/26 07:38:55;;;;;;;;;;;;;;;12.56;63.37;102065.63;7405150;19;1015;-80
2022/12/26 07:44:05;;;;;;;;;;;;;;;12.59;63.00;102076.09;7405831;19;772;-80
2022/12/26 07:46:33;;;;;;;;;;;;;;;12.76;62.51;102070.13;7403093;19;1420;-80
2022/12/26 07:49:02;;;;;;;;;;;;;;;13.46;60.88;102079.56;7404893;19;1391;-80
2022/12/26 07:51:32;;;;;;;;;;;;;;;14.14;59.00;102069.41;7405152;19;1097;-80
2022/12/26 07:54:03;;;;;;;;;;;;;;;14.38;58.35;102067.38;7405046;19;997;-80
2022/12/26 07:56:32;;;;;;;;;;;;;;;14.47;58.17;102079.41;7402998;19;1383;-80
2022/12/26 07:59:03;;;;;;;;;;;;;;;14.70;57.71;102060.53;7404663;19;975;-80
2022/12/26 08:01:31;;;;;;;;;;;;;;;14.95;57.02;102064.63;7402676;19;1846;-79
2022/12/26 08:04:02;;;;;;;;;;;;;;;15.02;56.76;102055.41;7404624;19;960;-79
2022/12/26 08:06:33;;;;;;;;;;;;;;;15.17;56.50;102058.22;7403757;19;1055;-80
2022/12/26 08:09:02;;;;;;;;;;;;;;;15.33;56.09;102043.16;7404437;19;1035;-80
2022/12/26 08:11:33;;;;;;;;;;;;;;;15.37;56.27;102054.50;7403968;19;1000;-79
2022/12/26 08:14:01;;;;;;;;;;;;;;;14.98;56.97;102043.19;7403904;19;1015;-80
2022/12/26 08:16:30;;;;;;;;;;;;;;;14.43;58.29;102041.41;7403496;19;1075;-80
2022/12/26 08:18:58;;;;;;;;;;;;;;;14.07;59.71;102052.03;7403316;19;1118;-80
2022/12/26 08:21:27;;;;;;;;;;;;;;;13.84;60.28;102053.94;7400547;19;1841;-80
2022/12/26 08:23:58;;;;;;;;;;;;;;;13.68;60.44;102047.59;7404186;19;971;-81
2022/12/26 08:26:27;;;;;;;;;;;;;;;13.59;60.69;102055.97;7401859;19;1388;-81
2022/12/26 08:28:56;;;;;;;;;;;;;;;13.52;61.28;102047.41;7403850;19;1040;-80
2022/12/26 08:31:25;;;;;;;;;;;;;;;13.45;61.36;102051.25;7401706;19;1511;-80
2022/12/26 08:33:59;;;;;;;;;;;;;;;13.45;61.44;102040.63;7403442;19;959;-80
2022/12/26 08:36:27;;;;;;;;;;;;;;;13.41;61.67;102039.03;7403420;19;944;-80
2022/12/26 08:38:58;;;;;;;;;;;;;;;13.39;61.46;102025.84;7403063;19;1046;-80
2022/12/26 08:41:27;;;;;;;;;;;;;;;13.38;61.48;102034.75;7401983;19;1853;-82
2022/12/26 08:43:55;;;;;;;;;;;;;;;13.39;61.36;102015.22;7402986;19;1026;-80
2022/12/26 08:46:23;;;;;;;;;;;;;;;13.37;61.60;102014.44;7402834;19;972;-79
2022/12/26 08:48:53;;;;;;;;;;;;;;;13.38;61.46;102018.81;7402497;19;964;-80
2022/12/26 08:51:23;;;;;;;;;;;;;;;13.38;61.34;102024.13;7400774;19;1405;-80
2022/12/26 08:53:52;;;;;;;;;;;;;;;13.38;61.47;102016.16;7402942;19;1019;-79
2022/12/26 08:56:25;;;;;;;;;;;;;;;13.41;61.53;102020.44;7402913;19;939;-79
2022/12/26 08:58:54;;;;;;;;;;;;;;;13.38;61.63;102023.25;7402198;19;1012;-81
2022/12/26 09:01:23;;;;;;;;;;;;;;;13.35;61.83;102024.25;7401013;19;1861;-80
2022/12/26 09:03:54;;;;;;;;;;;;;;;13.35;61.81;102018.06;7400637;19;1383;-79
2022/12/26 09:06:30;;;;;;;;;;;;;;;13.39;61.59;102014.34;7401929;19;1031;-80
2022/12/26 09:09:00;;;;;;;;;;;;;;;13.35;61.79;102007.44;7402392;19;1058;-79
2022/12/26 09:11:32;;;;;;;;;;;;;;;13.35;61.82;102003.00;7401877;19;952;-80
2022/12/26 09:14:01;;;;;;;;;;;;;;;13.36;61.68;101998.56;7401691;19;1047;-80
2022/12/26 09:16:30;;;;;;;;;;;;;;;13.40;61.66;102011.63;7401886;19;1035;-80
2022/12/26 09:19:00;;;;;;;;;;;;;;;13.38;61.62;102007.31;7417546;19;1161;-79
2022/12/26 09:21:36;;;;;;;;;;;;;;;13.37;61.71;102003.81;7412803;19;1809;-80
2022/12/26 09:24:07;;;;;;;;;;;;;;;13.38;61.82;102002.84;7402087;19;955;-80
2022/12/26 09:26:38;;;;;;;;;;;;;;;13.35;61.92;101989.72;7402303;19;955;-80
2022/12/26 09:29:06;;;;;;;;;;;;;;;13.36;61.60;102001.22;7402021;19;976;-80
2022/12/26 09:31:36;;;;;;;;;;;;;;;13.35;61.89;101997.69;7402326;19;1003;-79
2022/12/26 09:34:05;;;;;;;;;;;;;;;13.36;61.80;101983.47;7409388;19;1052;-80
2022/12/26 09:36:38;;;;;;;;;;;;;;;13.36;61.79;101991.44;7409734;19;982;-80
2022/12/26 09:39:06;;;;;;;;;;;;;;;13.37;61.86;101985.22;7409692;19;986;-81
2022/12/26 09:41:46;;;;;;;;;;;;;;;13.36;62.11;101982.63;7407352;19;1830;-79
2022/12/26 09:44:17;;;;;;;;;;;;;;;13.35;61.86;101972.91;7409302;19;962;-79
2022/12/26 09:46:49;;;;;;;;;;;;;;;13.36;61.97;101977.31;7406399;19;1511;-79
2022/12/26 09:49:19;;;;;;;;;;;;;;;13.38;61.64;101978.09;7409192;19;1010;-80
2022/12/26 09:51:50;;;;;;;;;;;;;;;13.39;62.01;101971.81;7408525;19;1064;-80
2022/12/26 09:54:20;;;;;;;;;;;;;;;13.38;61.77;101975.44;7408980;19;1019;-79
2022/12/26 09:56:52;;;;;;;;;;;;;;;13.35;61.82;101976.44;7408881;19;983;-80
2022/12/26 09:59:23;;;;;;;;;;;;;;;13.37;61.86;101963.94;7409245;19;1020;-80
2022/12/26 10:01:52;;;;;;;;;;;;;;;13.38;61.82;101960.34;7406653;19;1863;-83
2022/12/26 10:04:24;;;;;;;;;;;;;;;13.39;61.71;101958.53;7409084;19;1052;-79
2022/12/26 10:06:59;;;;;;;;;;;;;;;13.40;61.93;101971.75;7408259;19;994;-79
2022/12/26 10:09:43;;;;;;;;;;;;;;;13.42;61.63;101956.63;7408317;19;1043;-79
2022/12/26 10:12:22;;;;;;;;;;;;;;;13.50;61.69;101962.44;7405616;19;1375;-80
2022/12/26 10:14:54;;;;;;;;;;;;;;;13.48;61.59;101940.38;7408027;19;1027;-79
2022/12/26 10:17:30;;;;;;;;;;;;;;;13.51;61.65;101934.94;7407732;19;1046;-79
2022/12/26 10:20:04;;;;;;;;;;;;;;;13.57;61.76;101923.16;7408475;19;1009;-79
2022/12/26 10:22:42;;;;;;;;;;;;;;;13.59;61.59;101933.72;7406498;19;1851;-80
2022/12/26 10:25:16;;;;;;;;;;;;;;;13.59;61.58;101928.41;7405145;19;1465;-80
2022/12/26 10:27:49;;;;;;;;;;;;;;;13.58;61.22;101919.56;7407935;19;1131;-80
2022/12/26 10:30:22;;;;;;;;;;;;;;;13.58;61.58;101908.09;7407600;19;976;-80
2022/12/26 10:32:53;;;;;;;;;;;;;;;13.61;61.58;101918.56;7407555;19;1001;-79
2022/12/26 10:35:24;;;;;;;;;;;;;;;13.59;61.43;101907.13;7407179;19;1019;-79
2022/12/26 10:37:54;;;;;;;;;;;;;;;13.58;61.54;101900.09;7407273;19;984;-80
2022/12/26 10:40:26;;;;;;;;;;;;;;;13.59;61.59;101891.19;7407417;19;1221;-79
2022/12/26 10:42:58;;;;;;;;;;;;;;;13.60;61.41;101880.50;7404343;19;1859;-80
2022/12/26 10:45:30;;;;;;;;;;;;;;;13.60;61.60;101896.44;7405983;19;1070;-80
2022/12/26 10:48:00;;;;;;;;;;;;;;;13.58;61.79;101881.50;7407349;19;968;-80
2022/12/26 10:50:30;;;;;;;;;;;;;;;13.62;61.85;101891.06;7406493;19;1019;-80
2022/12/26 10:53:00;;;;;;;;;;;;;;;13.53;61.86;101879.94;7406890;19;1179;-79
2022/12/26 10:55:31;;;;;;;;;;;;;;;13.54;61.92;101875.47;7404269;19;1466;-79
2022/12/26 10:58:05;;;;;;;;;;;;;;;13.52;61.87;101887.97;7406491;19;981;-80
2022/12/26 11:00:33;;;;;;;;;;;;;;;13.52;61.75;101869.38;7406835;19;1108;-80
2022/12/26 11:03:06;;;;;;;;;;;;;;;13.51;61.88;101871.16;7403981;19;1859;-80
2022/12/26 11:05:36;;;;;;;;;;;;;;;13.54;61.97;101864.84;7406148;19;936;-81
2022/12/26 11:08:09;;;;;;;;;;;;;;;13.54;61.82;101862.19;7406209;19;948;-79
2022/12/26 11:10:37;;;;;;;;;;;;;;;13.53;61.96;101879.94;7406083;19;1166;-80
2022/12/26 11:13:10;;;;;;;;;;;;;;;13.51;62.15;101880.94;7403857;19;1494;-80
2022/12/26 11:15:40;;;;;;;;;;;;;;;13.51;62.06;101897.75;7405789;19;968;-80
2022/12/26 11:18:10;;;;;;;;;;;;;;;13.53;62.04;101890.56;7405495;19;992;-80
2022/12/26 11:20:39;;;;;;;;;;;;;;;13.49;61.90;101882.81;7405811;19;1460;-80
2022/12/26 11:23:15;;;;;;;;;;;;;;;13.54;61.87;101870.16;7422876;19;1853;-78
2022/12/26 11:25:49;;;;;;;;;;;;;;;13.57;61.87;101879.75;7410009;19;1024;-80
2022/12/26 11:28:29;;;;;;;;;;;;;;;13.57;62.14;101870.03;7405820;19;1052;-81
2022/12/26 11:30:58;;;;;;;;;;;;;;;13.57;61.98;101858.50;7405976;19;966;-80
2022/12/26 11:33:30;;;;;;;;;;;;;;;13.53;62.20;101873.75;7403661;19;1471;-79
2022/12/26 11:36:05;;;;;;;;;;;;;;;13.56;61.84;101880.72;7405127;19;960;-80
2022/12/26 11:38:38;;;;;;;;;;;;;;;13.52;62.19;101878.19;7405381;19;952;-81
2022/12/26 11:43:55;;;;;;;;;;;;;;;13.53;62.38;101873.75;7405984;19;698;-79
2022/12/26 11:46:32;;;;;;;;;;;;;;;13.57;62.19;101869.13;7405354;19;1025;-79
2022/12/26 11:49:02;;;;;;;;;;;;;;;13.50;62.25;101874.75;7403251;19;1510;-80
2022/12/26 11:51:35;;;;;;;;;;;;;;;13.50;62.52;101874.75;7404750;19;1126;-79
2022/12/26 11:54:21;;;;;;;;;;;;;;;13.50;62.47;101864.13;7404426;19;1071;-80
2022/12/26 11:56:51;;;;;;;;;;;;;;;13.51;62.14;101867.66;7402433;19;1108;-79
2022/12/26 11:59:24;;;;;;;;;;;;;;;13.51;62.18;101863.19;7402792;19;1383;-80
2022/12/26 12:02:14;;;;;;;;;;;;;;;13.49;62.60;101866.88;7402659;19;1850;-80
2022/12/26 12:04:42;;;;;;;;;;;;;;;13.51;62.41;101873.81;7402575;19;1386;-80
2022/12/26 12:07:18;;;;;;;;;;;;;;;13.55;62.27;101874.56;7404290;19;1003;-79
2022/12/26 12:09:53;;;;;;;;;;;;;;;13.56;62.27;101870.09;7404561;19;1033;-80
2022/12/26 12:12:27;;;;;;;;;;;;;;;13.57;62.28;101859.38;7404325;19;964;-80
2022/12/26 12:15:03;;;;;;;;;;;;;;;13.53;62.42;101863.97;7404402;19;1156;-80
2022/12/26 12:17:36;;;;;;;;;;;;;;;13.55;62.30;101866.56;7404217;19;1383;-80
2022/12/26 12:20:12;;;;;;;;;;;;;;;13.54;62.34;101854.22;7404497;19;974;-80
2022/12/26 12:22:58;;;;;;;;;;;;;;;13.55;62.46;101855.06;7402643;19;1875;-79
2022/12/26 12:25:36;;;;;;;;;;;;;;;13.54;62.59;101851.56;7402298;19;1454;-80
2022/12/26 12:28:11;;;;;;;;;;;;;;;13.51;62.66;101843.75;7404291;19;1002;-79
2022/12/26 12:30:46;;;;;;;;;;;;;;;13.52;62.38;101841.00;7401713;19;1384;-79
2022/12/26 12:33:21;;;;;;;;;;;;;;;13.54;62.50;101848.88;7403383;19;956;-80
2022/12/26 12:35:55;;;;;;;;;;;;;;;13.52;62.58;101859.59;7403627;19;1103;-80
2022/12/26 12:38:42;;;;;;;;;;;;;;;13.51;62.57;101839.28;7403312;19;1058;-80
2022/12/26 12:41:26;;;;;;;;;;;;;;;13.48;62.70;101844.72;7403353;19;976;-80
2022/12/26 12:43:57;;;;;;;;;;;;;;;13.52;62.70;101856.94;7403386;19;947;-79
2022/12/26 12:46:33;;;;;;;;;;;;;;;13.47;62.82;101847.47;7402968;19;976;-84
2022/12/26 12:49:20;;;;;;;;;;;;;;;13.43;62.64;101862.69;7402814;19;983;-79
2022/12/26 12:51:54;;;;;;;;;;;;;;;13.42;62.68;101853.00;7401303;19;1469;-78
2022/12/26 12:54:34;;;;;;;;;;;;;;;13.45;62.66;101847.53;7402821;19;1070;-80
2022/12/26 12:57:07;;;;;;;;;;;;;;;13.41;62.73;101851.28;7402627;19;996;-81
2022/12/26 12:59:41;;;;;;;;;;;;;;;13.39;63.04;101861.13;7401076;19;1374;-80
2022/12/26 13:02:18;;;;;;;;;;;;;;;13.38;62.66;101854.06;7401089;19;1855;-79
2022/12/26 13:04:49;;;;;;;;;;;;;;;13.38;62.96;101858.53;7401264;19;1488;-83
2022/12/26 13:07:23;;;;;;;;;;;;;;;13.36;62.84;101861.25;7401476;19;975;-80
2022/12/26 13:09:53;;;;;;;;;;;;;;;13.33;62.86;101859.63;7402349;19;1017;-80
2022/12/26 13:12:23;;;;;;;;;;;;;;;13.35;63.05;101859.53;7402172;19;976;-80
2022/12/26 13:14:54;;;;;;;;;;;;;;;13.33;63.06;101859.63;7402622;19;1003;-80
2022/12/26 13:17:30;;;;;;;;;;;;;;;13.32;63.18;101867.66;7400097;19;998;-81
2022/12/26 13:20:01;;;;;;;;;;;;;;;13.31;62.96;101864.13;7399705;19;1395;-80
2022/12/26 13:24:22;;;;;;;;;;;;;;;13.29;63.20;101866.00;7401051;19;1851;-79
2022/12/26 13:25:22;;;;;;;;;;;;;;;13.27;63.15;101862.53;7412475;19;861;-79
2022/12/26 13:28:08;;;;;;;;;;;;;;;13.26;63.01;101860.78;7420620;19;1071;-80
2022/12/26 13:30:36;;;;;;;;;;;;;;;13.25;63.27;101868.81;7402429;19;976;-80
2022/12/26 13:33:08;;;;;;;;;;;;;;;13.23;63.30;101857.41;7402080;19;942;-79
2022/12/26 13:35:52;;;;;;;;;;;;;;;13.26;63.32;101871.41;7402396;19;1039;-78
2022/12/26 13:38:21;;;;;;;;;;;;;;;13.22;63.41;101869.84;7402237;19;1079;-79
2022/12/26 13:40:51;;;;;;;;;;;;;;;13.22;63.22;101868.97;7402093;19;1113;-79
2022/12/26 13:46:03;;;;;;;;;;;;;;;13.21;63.38;101869.88;7402350;19;871;-79
2022/12/26 13:48:46;;;;;;;;;;;;;;;13.19;63.39;101855.81;7403464;19;964;-79
2022/12/26 13:51:30;;;;;;;;;;;;;;;13.16;63.72;101866.59;7404082;19;1081;-79
2022/12/26 13:54:04;;;;;;;;;;;;;;;13.17;63.58;101855.03;7401099;19;1193;-80
2022/12/26 13:56:49;;;;;;;;;;;;;;;13.11;63.55;101862.38;7401255;19;975;-80
2022/12/26 13:59:23;;;;;;;;;;;;;;;13.10;63.64;101865.94;7400892;19;1023;-80
2022/12/26 14:01:57;;;;;;;;;;;;;;;13.09;63.86;101850.97;7399442;19;1386;-80
2022/12/26 14:04:34;;;;;;;;;;;;;;;13.08;63.79;101867.81;7401383;19;967;-79
2022/12/26 14:07:15;;;;;;;;;;;;;;;13.08;63.72;101851.88;7400734;19;1043;-81
2022/12/26 14:09:58;;;;;;;;;;;;;;;13.07;64.05;101862.56;7400698;19;1071;-80
2022/12/26 14:12:37;;;;;;;;;;;;;;;13.04;63.74;101855.59;7401236;19;1038;-80
2022/12/26 14:15:23;;;;;;;;;;;;;;;13.04;63.66;101855.59;7398828;19;1408;-81
2022/12/26 14:17:56;;;;;;;;;;;;;;;13.04;63.77;101849.44;7398929;19;1493;-80
2022/12/26 14:20:35;;;;;;;;;;;;;;;13.00;63.75;101854.03;7407126;19;1075;-80
2022/12/26 14:23:08;;;;;;;;;;;;;;;13.01;63.87;101869.03;7406723;19;1837;-79
2022/12/26 14:25:47;;;;;;;;;;;;;;;12.98;63.71;101839.94;7407929;19;931;-80
2022/12/26 14:28:24;;;;;;;;;;;;;;;12.99;63.81;101841.69;7408027;19;922;-79
2022/12/26 14:30:57;;;;;;;;;;;;;;;12.95;64.11;101845.38;7407348;19;1008;-80
2022/12/26 14:33:29;;;;;;;;;;;;;;;12.91;64.06;101833.19;7407556;19;964;-78
2022/12/26 14:36:04;;;;;;;;;;;;;;;12.93;64.12;101857.88;7405044;19;1495;-80
2022/12/26 14:38:39;;;;;;;;;;;;;;;12.92;64.36;101840.25;7407751;19;1025;-80
2022/12/26 14:43:09;;;;;;;;;;;;;;;12.91;64.13;101833.19;7407179;19;963;-79
2022/12/26 14:44:08;;;;;;;;;;;;;;;12.91;63.97;101843.81;7405160;19;1875;-79
2022/12/26 14:46:52;;;;;;;;;;;;;;;12.92;64.27;101840.25;7407523;19;943;-79
2022/12/26 14:49:38;;;;;;;;;;;;;;;12.92;64.12;101853.50;7404846;19;1466;-80
2022/12/26 14:52:22;;;;;;;;;;;;;;;12.92;64.23;101850.84;7407564;19;1544;-81
2022/12/26 14:54:51;;;;;;;;;;;;;;;12.85;64.18;101863.56;7404584;19;1474;-80
2022/12/26 14:57:46;;;;;;;;;;;;;;;12.85;61.96;101865.31;7407073;19;1608;-79
2022/12/26 15:00:29;;;;;;;;;;;;;;;12.72;59.29;101859.72;7402361;19;1504;-79
2022/12/26 15:03:25;;;;;;;;;;;;;;;12.72;62.12;101844.63;7403069;19;1845;-79
2022/12/26 15:05:59;;;;;;;;;;;;;;;12.69;62.14;101852.75;7401378;19;1666;-79
2022/12/26 15:08:45;;;;;;;;;;;;;;;12.69;62.21;101843.91;7402546;19;1529;-78
2022/12/26 15:11:29;;;;;;;;;;;;;;;12.86;62.54;101845.81;7408361;19;1627;-80
2022/12/26 15:14:12;;;;;;;;;;;;;;;12.90;62.52;101852.72;7409269;19;1287;-78
2022/12/26 15:16:50;;;;;;;;;;;;;;;12.89;63.29;101856.28;7402012;19;1464;-78
2022/12/26 15:19:34;;;;;;;;;;;;;;;12.85;63.24;101854.69;7411457;19;1185;-79
2022/12/26 15:22:21;;;;;;;;;;;;;;;12.79;63.17;101847.03;7405855;19;1004;-79
2022/12/26 15:25:09;;;;;;;;;;;;;;;12.78;63.78;101845.31;7403012;19;984;-81
2022/12/26 15:27:46;;;;;;;;;;;;;;;12.74;64.18;101848.09;7403355;19;1419;-80
2022/12/26 15:30:20;;;;;;;;;;;;;;;12.75;64.01;101851.59;7401626;19;1471;-78